sensor_id;sensor_type;location;lat;lon;timestamp;pressure;altitude;pressure_sealevel;temperature;humidity
18436;BME280;9346;52.006;4.720;2022-07-23T00:00:39;101826.22;;;17.34;100.00
18436;BME280;9346;52.006;4.720;2022-07-23T00:03:06;101829.59;;;17.31;100.00
18436;BME280;9346;52.006;4.720;2022-07-23T00:05:33;101823.78;;;17.28;100.00
18436;BME280;9346;52.006;4.720;2022-07-23T00:07:59;101822.97;;;17.27;100.00
18436;BME280;9346;52.006;4.720;2022-07-23T00:10:26;101811.81;;;17.27;100.00
18436;BME280;9346;52.006;4.720;2022-07-23T00:12:55;101825.81;;;17.22;100.00
18436;BME280;9346;52.006;4.720;2022-07-23T00:15:22;101829.78;;;17.16;100.00
18436;BME280;9346;52.006;4.720;2022-07-23T00:17:49;101823.66;;;17.14;100.00
18436;BME280;9346;52.006;4.720;2022-07-23T00:20:16;101817.56;;;17.12;100.00
18436;BME280;9346;52.006;4.720;2022-07-23T00:22:47;101811.47;;;17.10;100.00
18436;BME280;9346;52.006;4.720;2022-07-23T00:25:14;101821.53;;;17.06;100.00
18436;BME280;9346;52.006;4.720;2022-07-23T00:27:41;101812.63;;;17.04;100.00
18436;BME280;9346;52.006;4.720;2022-07-23T00:30:12;101808.72;;;17.05;100.00
18436;BME280;9346;52.006;4.720;2022-07-23T00:32:46;101804.81;;;17.06;100.00
18436;BME280;9346;52.006;4.720;2022-07-23T00:35:14;101804.81;;;17.06;100.00
18436;BME280;9346;52.006;4.720;2022-07-23T00:37:41;101798.41;;;17.06;100.00
18436;BME280;9346;52.006;4.720;2022-07-23T00:40:10;101795.94;;;17.04;100.00
18436;BME280;9346;52.006;4.720;2022-07-23T00:42:37;101787.56;;;17.04;100.00
18436;BME280;9346;52.006;4.720;2022-07-23T00:45:05;101790.34;;;17.04;100.00
18436;BME280;9346;52.006;4.720;2022-07-23T00:47:34;101790.06;;;17.06;100.00
18436;BME280;9346;52.006;4.720;2022-07-23T00:50:02;101792.00;;;17.05;100.00
18436;BME280;9346;52.006;4.720;2022-07-23T00:52:30;101792.31;;;17.04;100.00
18436;BME280;9346;52.006;4.720;2022-07-23T00:54:58;101786.22;;;17.02;100.00
18436;BME280;9346;52.006;4.720;2022-07-23T00:57:25;101780.41;;;16.98;100.00
18436;BME280;9346;52.006;4.720;2022-07-23T00:59:52;101780.69;;;16.97;100.00
18436;BME280;9346;52.006;4.720;2022-07-23T01:02:19;101779.88;;;16.96;100.00
18436;BME280;9346;52.006;4.720;2022-07-23T01:04:48;101779.88;;;16.96;100.00
18436;BME280;9346;52.006;4.720;2022-07-23T01:07:15;101777.91;;;16.97;100.00
18436;BME280;9346;52.006;4.720;2022-07-23T01:09:43;101775.13;;;16.97;100.00
18436;BME280;9346;52.006;4.720;2022-07-23T01:12:10;101775.13;;;16.97;100.00
18436;BME280;9346;52.006;4.720;2022-07-23T01:14:37;101779.03;;;16.96;100.00
18436;BME280;9346;52.006;4.720;2022-07-23T01:17:04;101777.41;;;16.95;100.00
18436;BME280;9346;52.006;4.720;2022-07-23T01:19:31;101773.22;;;16.92;100.00
18436;BME280;9346;52.006;4.720;2022-07-23T01:22:02;101771.03;;;16.89;100.00
18436;BME280;9346;52.006;4.720;2022-07-23T01:24:32;101776.38;;;16.86;100.00
18436;BME280;9346;52.006;4.720;2022-07-23T01:26:59;101771.38;;;16.83;100.00
18436;BME280;9346;52.006;4.720;2022-07-23T01:29:26;101768.06;;;16.81;100.00
18436;BME280;9346;52.006;4.720;2022-07-23T01:31:53;101769.47;;;16.78;100.00
18436;BME280;9346;52.006;4.720;2022-07-23T01:34:20;101776.19;;;16.77;100.00
18436;BME280;9346;52.006;4.720;2022-07-23T01:36:46;101775.34;;;16.77;100.00
18436;BME280;9346;52.006;4.720;2022-07-23T01:39:13;101772.00;;;16.75;100.00
18436;BME280;9346;52.006;4.720;2022-07-23T01:41:42;101785.09;;;16.74;100.00
18436;BME280;9346;52.006;4.720;2022-07-23T01:44:09;101778.69;;;16.74;100.00
18436;BME280;9346;52.006;4.720;2022-07-23T01:46:38;101779.53;;;16.74;100.00
18436;BME280;9346;52.006;4.720;2022-07-23T01:49:05;101783.97;;;16.75;100.00
18436;BME280;9346;52.006;4.720;2022-07-23T01:51:32;101783.97;;;16.75;100.00
18436;BME280;9346;52.006;4.720;2022-07-23T01:53:59;101784.25;;;16.74;100.00
18436;BME280;9346;52.006;4.720;2022-07-23T01:56:26;101780.06;;;16.76;100.00
18436;BME280;9346;52.006;4.720;2022-07-23T01:58:55;101781.75;;;16.77;100.00
18436;BME280;9346;52.006;4.720;2022-07-23T02:01:21;101785.63;;;16.76;100.00
18436;BME280;9346;52.006;4.720;2022-07-23T02:03:49;101781.75;;;16.77;100.00
18436;BME280;9346;52.006;4.720;2022-07-23T02:06:16;101785.63;;;16.76;100.00
18436;BME280;9346;52.006;4.720;2022-07-23T02:08:42;101782.03;;;16.76;100.00
18436;BME280;9346;52.006;4.720;2022-07-23T02:11:09;101782.84;;;16.76;100.00
18436;BME280;9346;52.006;4.720;2022-07-23T02:13:36;101777.28;;;16.76;100.00
18436;BME280;9346;52.006;4.720;2022-07-23T02:16:05;101781.47;;;16.74;100.00
18436;BME280;9346;52.006;4.720;2022-07-23T02:18:32;101775.91;;;16.74;100.00
18436;BME280;9346;52.006;4.720;2022-07-23T02:20:59;101774.56;;;16.71;100.00
18436;BME280;9346;52.006;4.720;2022-07-23T02:23:27;101782.34;;;16.69;100.00
18436;BME280;9346;52.006;4.720;2022-07-23T02:25:54;101785.13;;;16.69;100.00
18436;BME280;9346;52.006;4.720;2022-07-23T02:28:20;101779.56;;;16.69;100.00
18436;BME280;9346;52.006;4.720;2022-07-23T02:30:47;101774.00;;;16.69;100.00
18436;BME280;9346;52.006;4.720;2022-07-23T02:33:15;101778.22;;;16.67;100.00
18436;BME280;9346;52.006;4.720;2022-07-23T02:35:42;101779.63;;;16.64;100.00
18436;BME280;9346;52.006;4.720;2022-07-23T02:38:09;101777.97;;;16.63;100.00
18436;BME280;9346;52.006;4.720;2022-07-23T02:40:36;101774.66;;;16.61;100.00
18436;BME280;9346;52.006;4.720;2022-07-23T02:43:03;101780.22;;;16.61;100.00
18436;BME280;9346;52.006;4.720;2022-07-23T02:45:30;101789.66;;;16.60;100.00
18436;BME280;9346;52.006;4.720;2022-07-23T02:47:56;101782.22;;;16.56;100.00
18436;BME280;9346;52.006;4.720;2022-07-23T02:50:25;101787.78;;;16.56;100.00
18436;BME280;9346;52.006;4.720;2022-07-23T02:52:51;101791.38;;;16.56;100.00
18436;BME280;9346;52.006;4.720;2022-07-23T02:55:18;101795.28;;;16.55;100.00
18436;BME280;9346;52.006;4.720;2022-07-23T02:57:45;101799.19;;;16.54;100.00
18436;BME280;9346;52.006;4.720;2022-07-23T03:00:12;101803.91;;;16.54;100.00
18436;BME280;9346;52.006;4.720;2022-07-23T03:02:39;101802.56;;;16.51;100.00
18436;BME280;9346;52.006;4.720;2022-07-23T03:05:07;101803.13;;;16.48;100.00
18436;BME280;9346;52.006;4.720;2022-07-23T03:07:35;101797.03;;;16.46;100.00
18436;BME280;9346;52.006;4.720;2022-07-23T03:10:02;101795.91;;;16.47;100.00
18436;BME280;9346;52.006;4.720;2022-07-23T03:12:29;101795.09;;;16.47;100.00
18436;BME280;9346;52.006;4.720;2022-07-23T03:14:56;101791.47;;;16.46;100.00
18436;BME280;9346;52.006;4.720;2022-07-23T03:17:23;101787.84;;;16.46;100.00
18436;BME280;9346;52.006;4.720;2022-07-23T03:19:50;101785.34;;;16.44;100.00
18436;BME280;9346;52.006;4.720;2022-07-23T03:22:17;101790.09;;;16.44;100.00
18436;BME280;9346;52.006;4.720;2022-07-23T03:24:45;101796.75;;;16.43;100.00
18436;BME280;9346;52.006;4.720;2022-07-23T03:27:21;101797.59;;;16.43;100.00
18436;BME280;9346;52.006;4.720;2022-07-23T03:29:48;101802.03;;;16.44;100.00
18436;BME280;9346;52.006;4.720;2022-07-23T03:32:15;101793.69;;;16.44;100.00
18436;BME280;9346;52.006;4.720;2022-07-23T03:34:42;101798.44;;;16.44;100.00
18436;BME280;9346;52.006;4.720;2022-07-23T03:37:09;101793.13;;;16.42;100.00
18436;BME280;9346;52.006;4.720;2022-07-23T03:39:36;101791.50;;;16.41;100.00
18436;BME280;9346;52.006;4.720;2022-07-23T03:42:05;101796.22;;;16.41;100.00
18436;BME280;9346;52.006;4.720;2022-07-23T03:44:32;101802.91;;;16.40;100.00
18436;BME280;9346;52.006;4.720;2022-07-23T03:46:59;101796.50;;;16.39;100.00
18436;BME280;9346;52.006;4.720;2022-07-23T03:49:27;101802.34;;;16.38;100.00
18436;BME280;9346;52.006;4.720;2022-07-23T03:51:53;101792.88;;;16.39;100.00
18436;BME280;9346;52.006;4.720;2022-07-23T03:54:20;101794.00;;;16.38;100.00
18436;BME280;9346;52.006;4.720;2022-07-23T03:56:47;101804.56;;;16.36;100.00
18436;BME280;9346;52.006;4.720;2022-07-23T03:59:16;101799.31;;;16.34;100.00
18436;BME280;9346;52.006;4.720;2022-07-23T04:01:43;101807.94;;;16.33;100.00
18436;BME280;9346;52.006;4.720;2022-07-23T04:04:10;101808.78;;;16.33;100.00
18436;BME280;9346;52.006;4.720;2022-07-23T04:06:36;101810.72;;;16.33;100.00
18436;BME280;9346;52.006;4.720;2022-07-23T04:09:03;101811.84;;;16.32;100.00
18436;BME280;9346;52.006;4.720;2022-07-23T04:11:30;101805.72;;;16.30;100.00
18436;BME280;9346;52.006;4.720;2022-07-23T04:13:57;101810.22;;;16.26;100.00
18436;BME280;9346;52.006;4.720;2022-07-23T04:16:25;101815.78;;;16.26;100.00
18436;BME280;9346;52.006;4.720;2022-07-23T04:18:52;101820.81;;;16.24;100.00
18436;BME280;9346;52.006;4.720;2022-07-23T04:21:19;101816.91;;;16.25;100.00
18436;BME280;9346;52.006;4.720;2022-07-23T04:23:46;101816.34;;;16.23;100.00
18436;BME280;9346;52.006;4.720;2022-07-23T04:26:13;101819.97;;;16.23;100.00
18436;BME280;9346;52.006;4.720;2022-07-23T04:28:40;101812.75;;;16.22;100.00
18436;BME280;9346;52.006;4.720;2022-07-23T04:31:07;101816.63;;;16.21;100.00
18436;BME280;9346;52.006;4.720;2022-07-23T04:33:35;101812.19;;;16.20;100.00
18436;BME280;9346;52.006;4.720;2022-07-23T04:36:03;101829.72;;;16.21;100.00
18436;BME280;9346;52.006;4.720;2022-07-23T04:38:30;101825.25;;;16.20;100.00
18436;BME280;9346;52.006;4.720;2022-07-23T04:40:57;101823.31;;;16.20;100.00
18436;BME280;9346;52.006;4.720;2022-07-23T04:43:24;101828.03;;;16.20;100.00
18436;BME280;9346;52.006;4.720;2022-07-23T04:45:52;101833.31;;;16.21;100.00
18436;BME280;9346;52.006;4.720;2022-07-23T04:48:19;101835.00;;;16.22;100.00
18436;BME280;9346;52.006;4.720;2022-07-23T04:50:47;101832.22;;;16.22;100.00
18436;BME280;9346;52.006;4.720;2022-07-23T04:53:14;101826.66;;;16.22;100.00
18436;BME280;9346;52.006;4.720;2022-07-23T04:55:43;101829.97;;;16.24;100.00
18436;BME280;9346;52.006;4.720;2022-07-23T04:58:10;101826.09;;;16.25;100.00
18436;BME280;9346;52.006;4.720;2022-07-23T05:00:37;101829.38;;;16.27;100.00
18436;BME280;9346;52.006;4.720;2022-07-23T05:03:04;101835.50;;;16.29;100.00
18436;BME280;9346;52.006;4.720;2022-07-23T05:05:31;101830.47;;;16.31;100.00
18436;BME280;9346;52.006;4.720;2022-07-23T05:08:00;101828.53;;;16.32;100.00
18436;BME280;9346;52.006;4.720;2022-07-23T05:10:27;101837.41;;;16.34;100.00
18436;BME280;9346;52.006;4.720;2022-07-23T05:12:54;101838.50;;;16.33;100.00
18436;BME280;9346;52.006;4.720;2022-07-23T05:15:22;101837.94;;;16.36;100.00
18436;BME280;9346;52.006;4.720;2022-07-23T05:17:49;101844.06;;;16.38;100.00
18436;BME280;9346;52.006;4.720;2022-07-23T05:20:15;101841.00;;;16.39;100.00
18436;BME280;9346;52.006;4.720;2022-07-23T05:22:42;101832.06;;;16.42;100.00
18436;BME280;9346;52.006;4.720;2022-07-23T05:25:11;101839.88;;;16.45;100.00
18436;BME280;9346;52.006;4.720;2022-07-23T05:27:38;101839.00;;;16.50;100.00
18436;BME280;9346;52.006;4.720;2022-07-23T05:30:06;101852.84;;;16.55;100.00
18436;BME280;9346;52.006;4.720;2022-07-23T05:32:33;101843.66;;;16.59;100.00
18436;BME280;9346;52.006;4.720;2022-07-23T05:35:02;101848.63;;;16.62;100.00
18436;BME280;9346;52.006;4.720;2022-07-23T05:37:28;101840.25;;;16.67;100.00
18436;BME280;9346;52.006;4.720;2022-07-23T05:39:55;101848.03;;;16.70;100.00
18436;BME280;9346;52.006;4.720;2022-07-23T05:42:24;101842.41;;;16.75;100.00
18436;BME280;9346;52.006;4.720;2022-07-23T05:44:51;101849.28;;;16.83;100.00
18436;BME280;9346;52.006;4.720;2022-07-23T05:47:17;101838.41;;;16.86;100.00
18436;BME280;9346;52.006;4.720;2022-07-23T05:49:45;101842.78;;;16.92;100.00
18436;BME280;9346;52.006;4.720;2022-07-23T05:52:12;101844.97;;;17.00;100.00
18436;BME280;9346;52.006;4.720;2022-07-23T05:54:39;101849.88;;;17.08;100.00
18436;BME280;9346;52.006;4.720;2022-07-23T05:57:05;101845.34;;;17.17;100.00
18436;BME280;9346;52.006;4.720;2022-07-23T05:59:34;101844.44;;;17.27;100.00
18436;BME280;9346;52.006;4.720;2022-07-23T06:02:01;101850.69;;;17.37;100.00
18436;BME280;9346;52.006;4.720;2022-07-23T06:04:28;101841.19;;;17.43;100.00
18436;BME280;9346;52.006;4.720;2022-07-23T06:06:55;101840.09;;;17.44;100.00
18436;BME280;9346;52.006;4.720;2022-07-23T06:09:21;101845.59;;;17.49;100.00
18436;BME280;9346;52.006;4.720;2022-07-23T06:11:48;101843.25;;;17.56;100.00
18436;BME280;9346;52.006;4.720;2022-07-23T06:14:15;101840.44;;;17.61;100.00
18436;BME280;9346;52.006;4.720;2022-07-23T06:16:44;101846.75;;;17.67;100.00
18436;BME280;9346;52.006;4.720;2022-07-23T06:19:11;101843.94;;;17.72;100.00
18436;BME280;9346;52.006;4.720;2022-07-23T06:21:38;101850.84;;;17.74;100.00
18436;BME280;9346;52.006;4.720;2022-07-23T06:24:05;101844.44;;;17.74;100.00
18436;BME280;9346;52.006;4.720;2022-07-23T06:26:32;101847.78;;;17.76;100.00
18436;BME280;9346;52.006;4.720;2022-07-23T06:28:59;101840.75;;;17.78;100.00
18436;BME280;9346;52.006;4.720;2022-07-23T06:31:26;101841.00;;;17.82;100.00
18436;BME280;9346;52.006;4.720;2022-07-23T06:33:54;101833.09;;;17.89;100.00
18436;BME280;9346;52.006;4.720;2022-07-23T06:36:21;101824.91;;;17.98;100.00
18436;BME280;9346;52.006;4.720;2022-07-23T06:38:48;101829.78;;;18.06;100.00
18436;BME280;9346;52.006;4.720;2022-07-23T06:41:15;101826.03;;;18.15;100.00
18436;BME280;9346;52.006;4.720;2022-07-23T06:43:42;101827.84;;;18.25;100.00
18436;BME280;9346;52.006;4.720;2022-07-23T06:46:08;101831.63;;;18.34;100.00
18436;BME280;9346;52.006;4.720;2022-07-23T06:48:35;101834.56;;;18.42;100.00
18436;BME280;9346;52.006;4.720;2022-07-23T06:51:04;101834.22;;;18.49;100.00
18436;BME280;9346;52.006;4.720;2022-07-23T06:53:31;101836.09;;;18.53;100.00
18436;BME280;9346;52.006;4.720;2022-07-23T06:55:58;101835.84;;;18.50;100.00
18436;BME280;9346;52.006;4.720;2022-07-23T06:58:25;101835.84;;;18.50;100.00
18436;BME280;9346;52.006;4.720;2022-07-23T07:00:52;101842.13;;;18.60;100.00
18436;BME280;9346;52.006;4.720;2022-07-23T07:03:19;101834.19;;;18.67;100.00
18436;BME280;9346;52.006;4.720;2022-07-23T07:05:46;101832.44;;;18.71;100.00
18436;BME280;9346;52.006;4.720;2022-07-23T07:08:15;101835.97;;;18.77;100.00
18436;BME280;9346;52.006;4.720;2022-07-23T07:10:42;101837.47;;;18.88;100.00
18436;BME280;9346;52.006;4.720;2022-07-23T07:13:09;101847.00;;;19.00;100.00
18436;BME280;9346;52.006;4.720;2022-07-23T07:15:36;101847.97;;;19.09;100.00
18436;BME280;9346;52.006;4.720;2022-07-23T07:18:03;101849.00;;;19.13;100.00
18436;BME280;9346;52.006;4.720;2022-07-23T07:20:30;101848.19;;;19.13;100.00
18436;BME280;9346;52.006;4.720;2022-07-23T07:22:57;101853.78;;;19.13;100.00
18436;BME280;9346;52.006;4.720;2022-07-23T07:25:26;101853.25;;;19.11;100.00
18436;BME280;9346;52.006;4.720;2022-07-23T07:27:53;101849.28;;;19.12;100.00
18436;BME280;9346;52.006;4.720;2022-07-23T07:30:20;101851.47;;;19.15;100.00
18436;BME280;9346;52.006;4.720;2022-07-23T07:32:47;101853.66;;;19.18;100.00
18436;BME280;9346;52.006;4.720;2022-07-23T07:35:14;101861.44;;;19.21;100.00
18436;BME280;9346;52.006;4.720;2022-07-23T07:37:41;101860.75;;;19.29;100.00
18436;BME280;9346;52.006;4.720;2022-07-23T07:40:09;101858.47;;;19.31;100.00
18436;BME280;9346;52.006;4.720;2022-07-23T07:42:48;101861.69;;;19.38;100.00
18436;BME280;9346;52.006;4.720;2022-07-23T07:45:16;101863.06;;;19.54;100.00
18436;BME280;9346;52.006;4.720;2022-07-23T07:47:43;101867.50;;;19.68;100.00
18436;BME280;9346;52.006;4.720;2022-07-23T07:50:12;101864.84;;;19.77;100.00
18436;BME280;9346;52.006;4.720;2022-07-23T07:52:39;101865.97;;;19.76;100.00
18436;BME280;9346;52.006;4.720;2022-07-23T07:55:08;101862.84;;;19.77;100.00
18436;BME280;9346;52.006;4.720;2022-07-23T07:57:36;101874.44;;;19.84;100.00
18436;BME280;9346;52.006;4.720;2022-07-23T08:00:09;101872.28;;;19.95;100.00
18436;BME280;9346;52.006;4.720;2022-07-23T08:02:44;101876.09;;;19.99;100.00
18436;BME280;9346;52.006;4.720;2022-07-23T08:05:11;101878.78;;;20.04;100.00
18436;BME280;9346;52.006;4.720;2022-07-23T08:07:39;101879.50;;;20.10;100.00
18436;BME280;9346;52.006;4.720;2022-07-23T08:10:07;101886.38;;;20.17;100.00
18436;BME280;9346;52.006;4.720;2022-07-23T08:12:39;101888.16;;;20.13;100.00
18436;BME280;9346;52.006;4.720;2022-07-23T08:15:11;101881.72;;;20.13;100.00
18436;BME280;9346;52.006;4.720;2022-07-23T08:17:39;101880.69;;;20.22;100.00
18436;BME280;9346;52.006;4.720;2022-07-23T08:20:08;101879.59;;;20.32;100.00
18436;BME280;9346;52.006;4.720;2022-07-23T08:22:47;101878.66;;;20.36;100.00
18436;BME280;9346;52.006;4.720;2022-07-23T08:25:15;101882.31;;;20.37;100.00
18436;BME280;9346;52.006;4.720;2022-07-23T08:27:42;101886.13;;;20.41;100.00
18436;BME280;9346;52.006;4.720;2022-07-23T08:30:11;101889.41;;;20.43;100.00
18436;BME280;9346;52.006;4.720;2022-07-23T08:32:51;101884.75;;;20.38;100.00
18436;BME280;9346;52.006;4.720;2022-07-23T08:35:22;101879.28;;;20.33;100.00
18436;BME280;9346;52.006;4.720;2022-07-23T08:37:50;101883.72;;;20.34;100.00
18436;BME280;9346;52.006;4.720;2022-07-23T08:40:18;101889.31;;;20.34;100.00
18436;BME280;9346;52.006;4.720;2022-07-23T08:42:47;101887.38;;;20.35;100.00
18436;BME280;9346;52.006;4.720;2022-07-23T08:45:19;101887.47;;;20.30;100.00
18436;BME280;9346;52.006;4.720;2022-07-23T08:47:49;101885.19;;;20.32;100.00
18436;BME280;9346;52.006;4.720;2022-07-23T08:50:16;101883.63;;;20.39;100.00
18436;BME280;9346;52.006;4.720;2022-07-23T08:52:44;101886.28;;;20.44;100.00
18436;BME280;9346;52.006;4.720;2022-07-23T08:55:11;101892.94;;;20.48;100.00
18436;BME280;9346;52.006;4.720;2022-07-23T08:57:38;101889.06;;;20.58;100.00
18436;BME280;9346;52.006;4.720;2022-07-23T09:00:07;101893.09;;;20.65;100.00
18436;BME280;9346;52.006;4.720;2022-07-23T09:02:41;101891.81;;;20.71;100.00
18436;BME280;9346;52.006;4.720;2022-07-23T09:05:08;101894.38;;;20.81;100.00
18436;BME280;9346;52.006;4.720;2022-07-23T09:07:36;101891.97;;;20.88;100.00
18436;BME280;9346;52.006;4.720;2022-07-23T09:10:08;101897.97;;;20.95;100.00
18436;BME280;9346;52.006;4.720;2022-07-23T09:12:35;101904.91;;;20.98;100.00
18436;BME280;9346;52.006;4.720;2022-07-23T09:15:05;101900.88;;;20.90;100.00
18436;BME280;9346;52.006;4.720;2022-07-23T09:17:42;101901.63;;;20.82;100.00
18436;BME280;9346;52.006;4.720;2022-07-23T09:20:11;101902.88;;;20.76;100.00
18436;BME280;9346;52.006;4.720;2022-07-23T09:22:40;101894.63;;;20.71;100.00
18436;BME280;9346;52.006;4.720;2022-07-23T09:25:14;101895.25;;;20.68;100.00
18436;BME280;9346;52.006;4.720;2022-07-23T09:27:49;101896.06;;;20.69;100.00
18436;BME280;9346;52.006;4.720;2022-07-23T09:30:18;101899.91;;;20.73;100.00
18436;BME280;9346;52.006;4.720;2022-07-23T09:33:03;101898.50;;;20.97;100.00
18436;BME280;9346;52.006;4.720;2022-07-23T09:35:44;101894.00;;;21.18;100.00
18436;BME280;9346;52.006;4.720;2022-07-23T09:38:11;101898.53;;;21.28;100.00
18436;BME280;9346;52.006;4.720;2022-07-23T09:40:38;101898.69;;;21.31;100.00
18436;BME280;9346;52.006;4.720;2022-07-23T09:43:05;101904.50;;;21.35;100.00
18436;BME280;9346;52.006;4.720;2022-07-23T09:45:31;101906.34;;;21.39;100.00
18436;BME280;9346;52.006;4.720;2022-07-23T09:48:12;101907.19;;;21.40;100.00
18436;BME280;9346;52.006;4.720;2022-07-23T09:50:39;101905.06;;;21.45;100.00
18436;BME280;9346;52.006;4.720;2022-07-23T09:53:06;101902.63;;;21.52;100.00
18436;BME280;9346;52.006;4.720;2022-07-23T09:55:35;101901.34;;;21.58;100.00
18436;BME280;9346;52.006;4.720;2022-07-23T09:58:04;101908.81;;;21.71;100.00
18436;BME280;9346;52.006;4.720;2022-07-23T10:00:33;101910.03;;;21.79;100.00
18436;BME280;9346;52.006;4.720;2022-07-23T10:03:01;101911.53;;;21.85;100.00
18436;BME280;9346;52.006;4.720;2022-07-23T10:05:30;101915.84;;;21.91;100.00
18436;BME280;9346;52.006;4.720;2022-07-23T10:07:59;101911.75;;;21.97;100.00
18436;BME280;9346;52.006;4.720;2022-07-23T10:10:27;101912.75;;;22.01;100.00
18436;BME280;9346;52.006;4.720;2022-07-23T10:12:55;101907.47;;;21.99;100.00
18436;BME280;9346;52.006;4.720;2022-07-23T10:15:54;101909.63;;;22.02;100.00
18436;BME280;9346;52.006;4.720;2022-07-23T10:18:22;101912.59;;;22.06;100.00
18436;BME280;9346;52.006;4.720;2022-07-23T10:20:51;101906.03;;;22.11;100.00
18436;BME280;9346;52.006;4.720;2022-07-23T10:23:22;101916.28;;;22.15;100.00
18436;BME280;9346;52.006;4.720;2022-07-23T10:25:57;101908.66;;;22.16;100.00
18436;BME280;9346;52.006;4.720;2022-07-23T10:28:46;101907.72;;;22.29;100.00
18436;BME280;9346;52.006;4.720;2022-07-23T10:31:25;101905.75;;;22.38;100.00
18436;BME280;9346;52.006;4.720;2022-07-23T10:34:02;101910.22;;;22.39;100.00
18436;BME280;9346;52.006;4.720;2022-07-23T10:39:12;101907.03;;;22.32;100.00
18436;BME280;9346;52.006;4.720;2022-07-23T10:41:41;101904.28;;;22.40;100.00
18436;BME280;9346;52.006;4.720;2022-07-23T10:44:10;101903.81;;;22.64;100.00
18436;BME280;9346;52.006;4.720;2022-07-23T10:46:56;101896.72;;;22.83;100.00
18436;BME280;9346;52.006;4.720;2022-07-23T10:49:30;101896.88;;;23.04;100.00
18436;BME280;9346;52.006;4.720;2022-07-23T10:52:32;101899.03;;;23.07;100.00
18436;BME280;9346;52.006;4.720;2022-07-23T10:58:04;101892.41;;;23.03;100.00
18436;BME280;9346;52.006;4.720;2022-07-23T11:00:31;101903.47;;;23.08;100.00
18436;BME280;9346;52.006;4.720;2022-07-23T11:03:00;101898.84;;;23.12;100.00
18436;BME280;9346;52.006;4.720;2022-07-23T11:05:41;101886.13;;;23.14;100.00
18436;BME280;9346;52.006;4.720;2022-07-23T11:08:19;101885.44;;;23.17;100.00
18436;BME280;9346;52.006;4.720;2022-07-23T11:10:49;101899.16;;;23.19;100.00
18436;BME280;9346;52.006;4.720;2022-07-23T11:16:07;101889.09;;;23.26;100.00
18436;BME280;9346;52.006;4.720;2022-07-23T11:19:04;101889.22;;;23.38;100.00
18436;BME280;9346;52.006;4.720;2022-07-23T11:21:50;101892.88;;;23.39;100.00
18436;BME280;9346;52.006;4.720;2022-07-23T11:24:24;101890.22;;;23.34;100.00
18436;BME280;9346;52.006;4.720;2022-07-23T11:27:02;101892.22;;;23.42;100.00
18436;BME280;9346;52.006;4.720;2022-07-23T11:29:43;101894.78;;;23.55;100.00
18436;BME280;9346;52.006;4.720;2022-07-23T11:32:24;101892.97;;;23.59;100.00
18436;BME280;9346;52.006;4.720;2022-07-23T11:34:54;101893.44;;;23.61;100.00
18436;BME280;9346;52.006;4.720;2022-07-23T11:40:18;101893.84;;;23.89;100.00
18436;BME280;9346;52.006;4.720;2022-07-23T11:42:52;101890.19;;;23.97;100.00
18436;BME280;9346;52.006;4.720;2022-07-23T11:45:19;101895.63;;;23.93;100.00
18436;BME280;9346;52.006;4.720;2022-07-23T11:47:46;101893.00;;;23.97;100.00
18436;BME280;9346;52.006;4.720;2022-07-23T11:50:14;101891.50;;;23.99;100.00
18436;BME280;9346;52.006;4.720;2022-07-23T11:52:42;101889.47;;;24.09;100.00
18436;BME280;9346;52.006;4.720;2022-07-23T11:55:10;101881.94;;;24.21;100.00
18436;BME280;9346;52.006;4.720;2022-07-23T11:57:40;101874.09;;;24.27;100.00
18436;BME280;9346;52.006;4.720;2022-07-23T12:00:09;101879.22;;;24.33;100.00
18436;BME280;9346;52.006;4.720;2022-07-23T12:02:37;101876.47;;;24.45;100.00
18436;BME280;9346;52.006;4.720;2022-07-23T12:05:10;101870.97;;;24.49;100.00
18436;BME280;9346;52.006;4.720;2022-07-23T12:07:40;101863.81;;;24.51;100.00
18436;BME280;9346;52.006;4.720;2022-07-23T12:10:13;101859.97;;;24.56;100.00
18436;BME280;9346;52.006;4.720;2022-07-23T12:12:44;101868.53;;;24.68;100.00
18436;BME280;9346;52.006;4.720;2022-07-23T12:15:13;101872.28;;;24.72;100.00
18436;BME280;9346;52.006;4.720;2022-07-23T12:17:41;101874.44;;;24.75;100.00
18436;BME280;9346;52.006;4.720;2022-07-23T12:20:12;101874.53;;;24.58;100.00
18436;BME280;9346;52.006;4.720;2022-07-23T12:22:41;101869.75;;;24.58;100.00
18436;BME280;9346;52.006;4.720;2022-07-23T12:25:11;101873.31;;;24.67;100.00
18436;BME280;9346;52.006;4.720;2022-07-23T12:27:39;101875.75;;;24.77;100.00
18436;BME280;9346;52.006;4.720;2022-07-23T12:30:32;101868.41;;;24.97;100.00
18436;BME280;9346;52.006;4.720;2022-07-23T12:32:59;101867.91;;;25.15;100.00
18436;BME280;9346;52.006;4.720;2022-07-23T12:35:32;101872.16;;;25.21;99.81
18436;BME280;9346;52.006;4.720;2022-07-23T12:38:03;101876.16;;;25.20;99.33
18436;BME280;9346;52.006;4.720;2022-07-23T12:40:32;101859.22;;;25.20;100.00
18436;BME280;9346;52.006;4.720;2022-07-23T12:43:02;101866.09;;;25.31;100.00
18436;BME280;9346;52.006;4.720;2022-07-23T12:46:04;101870.81;;;25.51;100.00
18436;BME280;9346;52.006;4.720;2022-07-23T12:48:34;101867.81;;;25.68;100.00
18436;BME280;9346;52.006;4.720;2022-07-23T12:51:04;101872.41;;;25.85;100.00
18436;BME280;9346;52.006;4.720;2022-07-23T12:53:36;101867.38;;;25.90;98.10
18436;BME280;9346;52.006;4.720;2022-07-23T12:56:06;101866.19;;;25.91;97.82
18436;BME280;9346;52.006;4.720;2022-07-23T12:58:42;101868.88;;;25.88;96.64
18436;BME280;9346;52.006;4.720;2022-07-23T13:01:22;101869.91;;;25.83;96.21
18436;BME280;9346;52.006;4.720;2022-07-23T13:03:56;101867.84;;;25.80;95.77
18436;BME280;9346;52.006;4.720;2022-07-23T13:06:23;101867.00;;;25.80;94.03
18436;BME280;9346;52.006;4.720;2022-07-23T13:08:50;101866.16;;;25.79;92.03
18436;BME280;9346;52.006;4.720;2022-07-23T13:11:17;101865.69;;;25.89;93.94